Marica, Brazil
Current Conditions -  °F | °C
As of 8:00 PM on Sunday 23 Nov 2014 (Local Time) from SBRJ Reporting Station
Overcast Overcast  
Wind Chill: 72°   Ceiling: 3500
Heat Index: 72°   Visibility: 4mi
Dew Point: 70°   Wind: 5mph
Humidity: 94%   Direction: 150°SSE
Pressure: 29.94"   Gusts: NA
Location:  22.92°S, 42.82°W
Report Text: SBRJ 232200Z 15004KT 7000 BKN035 OVC070 22/21 Q1014
Loading
Personal Weather Stations






























Interactive Weather Map New forecast layout! Learn more

10-Day Weather Forecast

Advertisements
Track Severe Weather on mobile